Time;durP1;ratioP1;P1;durP2;ratioP2;P2;SDS_P1;SDS_P2;PMS_P1;PMS_P2;Temp;Humidity;BMP_temperature;BMP_pressure;BME280_temperature;BME280_humidity;BME280_pressure;Samples;Min_cycle;Max_cycle;Signal;HPM_P1;HPM_P2
2021/10/20 00:35:41;;;;;;;66.35;44.97;;;204.90;2252.80;;;;;;4977977;23;20063;-80
2021/10/20 00:45:25;;;;;;;66.85;42.97;;;205.20;2252.80;;;;;;4867835;29;20048;-82
2021/10/20 01:10:31;;;;;;;57.58;39.53;;;205.50;2252.80;;;;;;4861007;29;20045;-84
2021/10/20 01:12:57;;;;;;;63.42;39.63;;;205.60;2252.80;;;;;;4844489;29;20037;-84
2021/10/20 01:15:26;;;;;;;59.30;41.40;;;205.60;2252.80;;;;;;4844613;29;20070;-84
2021/10/20 01:17:53;;;;;;;57.47;40.75;;;205.50;2252.80;;;;;;4844370;29;20029;-85
2021/10/20 01:20:26;;;;;;;58.50;42.60;;;205.50;2252.80;;;;;;4844234;29;20558;-84
2021/10/20 01:22:53;;;;;;;65.03;43.75;;;205.50;2252.80;;;;;;4893450;29;20032;-84
2021/10/20 01:25:19;;;;;;;58.65;40.22;;;205.50;2252.80;;;;;;4917914;29;20044;-85
2021/10/20 01:27:45;;;;;;;64.88;42.55;;;205.40;2252.80;;;;;;4900833;29;20024;-84
2021/10/20 01:30:11;;;;;;;63.17;42.67;;;205.50;2252.80;;;;;;4917828;29;20075;-83
2021/10/20 01:32:38;;;;;;;57.42;40.55;;;205.50;2252.80;;;;;;4900910;29;20454;-84
2021/10/20 01:35:04;;;;;;;61.75;42.58;;;205.50;2252.80;;;;;;4914417;29;20048;-84
2021/10/20 01:37:30;;;;;;;60.03;41.38;;;205.50;2252.80;;;;;;4916539;29;20127;-84
2021/10/20 01:39:56;;;;;;;56.58;41.13;;;205.50;2252.80;;;;;;4916762;29;20032;-85
2021/10/20 01:42:24;;;;;;;57.30;41.28;;;205.50;2252.80;;;;;;4916627;29;20064;-84
2021/10/20 01:44:50;;;;;;;59.33;41.83;;;205.50;2252.80;;;;;;4916609;29;20039;-83
2021/10/20 01:47:16;;;;;;;60.45;41.78;;;205.40;2252.80;;;;;;4916546;29;20406;-84
2021/10/20 01:49:42;;;;;;;62.60;42.92;;;205.40;2252.80;;;;;;4923159;29;20031;-86
2021/10/20 01:52:08;;;;;;;58.47;41.33;;;205.40;2252.80;;;;;;4935253;29;20499;-85
2021/10/20 01:54:34;;;;;;;58.22;40.08;;;205.40;2252.80;;;;;;4935451;29;20035;-86
2021/10/20 01:57:00;;;;;;;68.93;42.42;;;205.40;2252.80;;;;;;4935146;29;20027;-86
2021/10/20 02:02:48;;;;;;;59.13;40.38;;;205.30;2252.80;;;;;;4936049;29;20039;-85
2021/10/20 02:26:06;;;;;;;58.33;40.08;;;180.10;2252.80;;;;;;4995115;23;20039;-79
2021/10/20 02:33:22;;;;;;;59.20;41.05;;;180.10;2252.80;;;;;;4847399;29;20529;-80
2021/10/20 02:36:52;;;;;;;59.25;40.15;;;179.70;2252.80;;;;;;4794085;30;20044;-79
2021/10/20 02:40:38;;;;;;;56.67;38.55;;;179.70;2252.80;;;;;;4715429;30;20022;-79
2021/10/20 03:52:37;;;;;;;55.55;37.25;;;179.70;2252.80;;;;;;4884867;29;21190;-79
2021/10/20 03:56:49;;;;;;;55.33;37.75;;;179.60;2252.80;;;;;;4865447;29;20160;-79
2021/10/20 04:03:09;;;;;;;58.78;38.75;;;179.70;2252.80;;;;;;5015560;23;20050;-79
2021/10/20 04:50:08;;;;;;;82.35;51.47;;;179.50;2252.80;;;;;;4800150;27;20047;-79
2021/10/20 04:53:38;;;;;;;76.05;50.45;;;179.60;2252.80;;;;;;4846583;29;20054;-79
2021/10/20 05:11:38;;;;;;;81.43;55.38;;;179.60;2252.80;;;;;;5077325;23;20051;-80
2021/10/20 05:28:29;;;;;;;87.25;56.25;;;179.70;2252.80;;;;;;4960417;28;20059;-79
2021/10/20 05:41:50;;;;;;;86.40;54.78;;;179.80;2252.80;;;;;;5131940;23;20037;-80
2021/10/20 05:45:46;;;;;;;90.00;58.38;;;179.70;2252.80;;;;;;4898382;29;20052;-79
2021/10/20 05:49:38;;;;;;;88.47;59.60;;;179.60;2252.80;;;;;;4789802;29;20051;-79
2021/10/20 05:53:30;;;;;;;86.53;57.83;;;179.60;2252.80;;;;;;4774369;29;20051;-80
2021/10/20 05:57:23;;;;;;;101.30;63.58;;;179.80;2252.80;;;;;;4738278;30;20060;-80
2021/10/20 06:00:53;;;;;;;102.15;60.92;;;179.80;2252.80;;;;;;4704404;30;20060;-80
2021/10/20 06:04:38;;;;;;;88.07;59.90;;;179.90;2252.80;;;;;;4703839;30;20066;-80
2021/10/20 06:15:09;;;;;;;75.10;54.25;;;204.80;2252.80;;;;;;5257729;23;20067;-81
2021/10/20 06:48:23;;;;;;;71.45;49.40;;;230.40;2252.80;;;;;;4922145;29;20115;-85
2021/10/20 06:50:49;;;;;;;72.53;50.85;;;230.50;2252.80;;;;;;4919272;29;20028;-87
2021/10/20 06:53:15;;;;;;;73.95;50.83;;;230.60;2252.80;;;;;;4920432;29;20040;-86
2021/10/20 06:55:41;;;;;;;75.47;50.42;;;230.70;2252.80;;;;;;4920274;29;20030;-84
2021/10/20 06:58:07;;;;;;;68.53;48.58;;;230.80;2252.80;;;;;;4919186;29;20469;-85
2021/10/20 07:00:32;;;;;;;66.68;48.22;;;230.90;2252.80;;;;;;4919105;29;20072;-85
2021/10/20 07:02:58;;;;;;;69.43;49.97;;;231.00;2252.80;;;;;;4920169;29;20032;-86
2021/10/20 07:05:24;;;;;;;75.82;50.83;;;231.10;2252.80;;;;;;4903465;29;20083;-83
2021/10/20 07:07:50;;;;;;;68.47;46.97;;;231.20;2252.80;;;;;;4903057;29;20426;-84
2021/10/20 07:10:16;;;;;;;67.18;48.15;;;256.00;2252.80;;;;;;4903054;29;20034;-85
2021/10/20 07:12:42;;;;;;;68.00;48.30;;;256.20;2252.80;;;;;;4918579;29;20063;-85
2021/10/20 07:15:09;;;;;;;69.70;45.35;;;256.30;2252.80;;;;;;4920502;29;20391;-85
2021/10/20 07:17:35;;;;;;;65.93;47.97;;;256.40;2252.80;;;;;;4919458;29;20114;-84
2021/10/20 07:20:01;;;;;;;68.43;48.35;;;256.60;2252.80;;;;;;4902894;29;20136;-84
2021/10/20 07:22:27;;;;;;;78.60;50.90;;;256.60;2252.80;;;;;;4917898;29;20111;-85
2021/10/20 07:24:54;;;;;;;65.20;49.38;;;256.70;2252.80;;;;;;4919209;29;20099;-85
2021/10/20 07:27:19;;;;;;;63.70;47.90;;;256.80;2252.80;;;;;;4917849;29;20032;-84
2021/10/20 07:29:47;;;;;;;74.05;48.55;;;256.90;2252.80;;;;;;4919048;29;20020;-83
2021/10/20 07:32:13;;;;;;;71.15;48.13;;;281.60;2278.40;;;;;;4918966;29;20031;-83
2021/10/20 07:34:39;;;;;;;70.63;47.72;;;281.70;2278.40;;;;;;4918956;29;20529;-85
2021/10/20 07:37:05;;;;;;;68.65;48.60;;;281.80;2278.40;;;;;;4918720;29;20095;-84
2021/10/20 07:39:31;;;;;;;72.32;51.28;;;282.10;2278.40;;;;;;4918659;29;20028;-83
2021/10/20 07:41:56;;;;;;;70.72;49.80;;;282.20;2278.40;;;;;;4919310;29;20024;-86
2021/10/20 07:44:22;;;;;;;62.92;46.03;;;282.30;2278.40;;;;;;4919947;29;20470;-85
2021/10/20 07:46:48;;;;;;;61.95;45.70;;;282.50;2278.40;;;;;;4910472;29;20055;-82
2021/10/20 07:49:14;;;;;;;65.85;45.92;;;307.20;2304.00;;;;;;4926342;29;20118;-83
2021/10/20 07:51:40;;;;;;;63.00;47.30;;;307.40;2304.00;;;;;;4924685;29;20056;-84
2021/10/20 07:54:06;;;;;;;65.72;46.03;;;307.50;2304.00;;;;;;4927754;29;20047;-84
2021/10/20 07:56:33;;;;;;;64.35;45.30;;;307.80;2252.80;;;;;;4910095;29;20025;-83
2021/10/20 07:59:00;;;;;;;62.30;43.15;;;308.00;2227.20;;;;;;4909101;29;20024;-83
2021/10/20 08:01:27;;;;;;;60.30;45.53;;;333.00;2227.20;;;;;;4922729;29;20101;-83
2021/10/20 08:03:52;;;;;;;53.63;41.60;;;333.50;2150.40;;;;;;4926752;29;20024;-83
2021/10/20 08:06:18;;;;;;;55.15;42.10;;;333.60;2176.00;;;;;;4927635;29;20119;-83
2021/10/20 08:08:44;;;;;;;50.92;40.45;;;358.50;2150.40;;;;;;4923382;29;20020;-86
2021/10/20 08:11:10;;;;;;;53.90;38.03;;;358.90;2099.20;;;;;;4909699;29;20050;-83
2021/10/20 08:13:36;;;;;;;59.60;39.03;;;359.10;2048.00;;;;;;4931786;28;20057;-83
2021/10/20 08:16:02;;;;;;;48.83;35.13;;;384.30;1971.20;;;;;;4946629;28;20027;-82
2021/10/20 08:18:28;;;;;;;53.33;33.40;;;436.00;1817.60;;;;;;4965215;28;20433;-81
2021/10/20 08:20:54;;;;;;;45.83;35.13;;;512.80;1484.80;;;;;;4947704;28;20106;-80
2021/10/20 08:23:20;;;;;;;46.22;33.10;;;589.10;1305.60;;;;;;4946227;28;20062;-80
2021/10/20 08:25:46;;;;;;;40.72;31.63;;;615.30;1177.60;;;;;;4948083;28;20050;-81
2021/10/20 08:28:11;;;;;;;40.17;32.55;;;666.10;1049.60;;;;;;4946892;28;20058;-81
2021/10/20 08:30:38;;;;;;;40.05;32.35;;;691.60;1024.00;;;;;;4945785;28;20027;-82
2021/10/20 08:33:06;;;;;;;46.17;35.88;;;717.10;972.80;;;;;;4961102;28;20552;-81
2021/10/20 08:35:32;;;;;;;56.03;34.75;;;743.00;921.60;;;;;;4947097;28;20101;-81
2021/10/20 08:38:03;;;;;;;43.03;33.58;;;768.00;896.00;;;;;;4962765;28;20061;-80
2021/10/20 08:40:47;;;;;;;38.97;31.92;;;768.70;844.80;;;;;;4948060;28;20018;-84
2021/10/20 08:43:15;;;;;;;35.22;29.70;;;768.90;793.60;;;;;;4944285;28;20073;-80
2021/10/20 08:45:41;;;;;;;39.35;30.50;;;794.30;844.80;;;;;;4963631;28;20550;-80
2021/10/20 08:48:08;;;;;;;33.30;29.20;;;819.40;819.20;;;;;;4947786;28;20030;-80
2021/10/20 08:50:35;;;;;;;36.63;31.30;;;820.10;793.60;;;;;;4946405;28;20469;-81
2021/10/20 08:53:02;;;;;;;32.33;28.83;;;820.10;768.00;;;;;;4963468;28;20031;-81
2021/10/20 08:55:28;;;;;;;35.40;28.63;;;845.30;768.00;;;;;;4964949;28;20026;-80
2021/10/20 08:57:55;;;;;;;31.73;27.92;;;845.60;742.40;;;;;;4963498;28;20023;-81
2021/10/20 09:00:22;;;;;;;32.33;28.80;;;870.40;742.40;;;;;;4963437;28;20118;-80
2021/10/20 09:02:49;;;;;;;30.88;25.67;;;870.40;768.00;;;;;;4964882;28;20093;-81
2021/10/20 09:05:26;;;;;;;29.35;25.58;;;870.90;691.20;;;;;;4946404;28;20118;-81
2021/10/20 09:07:54;;;;;;;34.03;25.33;;;871.10;691.20;;;;;;4960888;28;20035;-82
2021/10/20 09:10:24;;;;;;;28.63;24.77;;;896.00;691.20;;;;;;4963735;28;20022;-82
2021/10/20 09:12:54;;;;;;;26.65;23.85;;;;;;;;;;4960513;28;20045;-82
2021/10/20 09:15:22;;;;;;;34.90;25.60;;;921.60;665.60;;;;;;4946072;28;20134;-82
2021/10/20 09:17:53;;;;;;;31.83;26.80;;;921.60;640.00;;;;;;4947344;28;20027;-81
2021/10/20 09:20:25;;;;;;;35.42;26.17;;;921.70;614.40;;;;;;4964110;28;20070;-82
2021/10/20 09:22:59;;;;;;;34.50;21.70;;;922.10;640.00;;;;;;4947412;28;20030;-80
2021/10/20 09:25:32;;;;;;;35.55;20.83;;;922.00;640.00;;;;;;4965974;28;20034;-81
2021/10/20 09:27:58;;;;;;;;;;;922.50;588.80;;;;;;4944503;28;20055;-81
2021/10/20 09:30:27;;;;;;;23.60;21.10;;;947.20;614.40;;;;;;4945853;28;20393;-81
2021/10/20 09:32:58;;;;;;;27.60;21.75;;;947.70;588.80;;;;;;4964282;28;20082;-81
2021/10/20 09:35:24;;;;;;;26.48;22.48;;;947.90;588.80;;;;;;4963832;28;20469;-81
2021/10/20 09:37:58;;;;;;;504.73;79.18;;;922.30;614.40;;;;;;4962798;28;20115;-82
2021/10/20 09:40:25;;;;;;;272.48;48.85;;;844.80;716.80;;;;;;4946874;28;20424;-82
2021/10/20 09:42:54;;;;;;;140.55;35.42;;;768.50;793.60;;;;;;4968471;28;20384;-82
2021/10/20 09:45:22;;;;;;;1551.65;249.07;;;717.40;844.80;;;;;;4950107;28;20023;-81
2021/10/20 09:47:48;;;;;;;128.95;31.35;;;716.90;870.40;;;;;;4966494;28;20051;-82
2021/10/20 09:50:15;;;;;;;25.33;19.55;;;691.30;870.40;;;;;;4946689;28;20029;-81
2021/10/20 09:52:50;;;;;;;124.30;32.63;;;640.80;921.60;;;;;;4949803;28;20515;-82
2021/10/20 09:55:25;;;;;;;63.08;23.80;;;615.20;1024.00;;;;;;4964532;28;20019;-81
2021/10/20 09:58:12;;;;;;;37.33;19.95;;;589.50;1075.20;;;;;;4949028;28;20029;-82
2021/10/20 10:00:38;;;;;;;24.60;16.45;;;589.00;1100.80;;;;;;4964730;28;20023;-81
2021/10/20 10:03:07;;;;;;;27.77;17.75;;;564.00;1126.40;;;;;;4966923;28;20018;-81
2021/10/20 10:05:34;;;;;;;24.58;16.90;;;614.40;1075.20;;;;;;4950708;28;20443;-81
2021/10/20 10:07:59;;;;;;;22.73;16.48;;;691.20;896.00;;;;;;4966786;28;20023;-81
2021/10/20 10:10:26;;;;;;;22.88;17.00;;;691.60;870.40;;;;;;4966591;28;20126;-81
2021/10/20 10:12:58;;;;;;;268.02;41.58;;;640.30;972.80;;;;;;4950288;28;20428;-81
2021/10/20 10:15:26;;;;;;;1562.53;230.85;;;614.50;1049.60;;;;;;4949840;28;20039;-81
2021/10/20 10:17:55;;;;;;;337.08;51.67;;;589.00;1100.80;;;;;;4948637;28;20127;-81
2021/10/20 10:20:29;;;;;;;63.90;21.92;;;563.70;1177.60;;;;;;4966997;28;20019;-82
2021/10/20 10:23:02;;;;;;;51.40;22.13;;;563.20;1228.80;;;;;;4946269;28;20115;-82
2021/10/20 10:25:37;;;;;;;23.08;17.48;;;537.90;1228.80;;;;;;4948663;28;20050;-84
2021/10/20 10:28:08;;;;;;;47.40;18.83;;;537.90;1228.80;;;;;;4948326;28;20069;-82
2021/10/20 10:30:47;;;;;;;36.92;18.48;;;537.60;1254.40;;;;;;4948748;28;20047;-84
2021/10/20 10:33:24;;;;;;;49.33;19.85;;;512.50;1280.00;;;;;;4948249;28;20065;-83
2021/10/20 10:36:18;;;;;;;32.55;17.30;;;512.30;1280.00;;;;;;4948425;28;20031;-82
2021/10/20 10:39:00;;;;;;;20.95;16.17;;;512.10;1280.00;;;;;;4965621;28;20016;-82
2021/10/20 10:41:27;;;;;;;899.00;123.50;;;487.30;1280.00;;;;;;4948795;28;20031;-82
2021/10/20 10:44:07;;;;;;;518.78;72.15;;;487.20;1331.20;;;;;;4948209;28;20027;-82
2021/10/20 10:46:45;;;;;;;69.35;18.98;;;487.10;1356.80;;;;;;4943404;29;20539;-80
2021/10/20 10:49:24;;;;;;;63.10;19.00;;;487.10;1331.20;;;;;;4940975;29;20046;-81
2021/10/20 10:52:28;;;;;;;44.80;16.13;;;486.90;1305.60;;;;;;4938546;29;20027;-82
2021/10/20 10:54:57;;;;;;;22.75;13.63;;;;;;;;;;4901281;29;20043;-75
2021/10/20 10:57:23;;;;;;;34.40;15.15;;;;;;;;;;4939362;29;20088;-75
2021/10/20 10:59:54;;;;;;;22.33;13.93;;;;;;;;;;4939280;29;20015;-75
2021/10/20 11:02:39;;;;;;;18.60;12.38;;;;;;;;;;4956704;29;20027;-77
2021/10/20 11:05:06;;;;;;;22.00;12.43;;;486.80;1408.00;;;;;;4938285;29;20146;-76
2021/10/20 11:07:33;;;;;;;25.42;12.18;;;486.60;1408.00;;;;;;4953990;29;20058;-75
2021/10/20 11:10:00;;;;;;;16.55;12.10;;;486.50;1408.00;;;;;;4956318;29;20073;-76
2021/10/20 11:12:26;;;;;;;14.80;11.43;;;486.50;1408.00;;;;;;4939031;29;20039;-76
2021/10/20 11:14:55;;;;;;;25.00;12.20;;;486.50;1408.00;;;;;;4953387;29;20514;-76
2021/10/20 11:17:21;;;;;;;16.92;11.10;;;486.40;1408.00;;;;;;4956540;29;20027;-78
2021/10/20 11:19:47;;;;;;;14.82;9.68;;;486.40;1382.40;;;;;;4940434;29;20083;-76
2021/10/20 11:22:23;;;;;;;18.08;10.98;;;486.40;1331.20;;;;;;4940306;29;20082;-76
2021/10/20 11:24:52;;;;;;;18.30;9.30;;;486.40;1356.80;;;;;;4957669;29;20076;-85
2021/10/20 11:27:23;;;;;;;12.65;9.48;;;486.40;1331.20;;;;;;4957363;29;20019;-77
2021/10/20 11:29:51;;;;;;;14.07;9.73;;;486.40;1356.80;;;;;;4940131;29;20027;-76
2021/10/20 11:32:20;;;;;;;15.52;10.32;;;486.40;1382.40;;;;;;4957257;29;20034;-76
2021/10/20 11:34:47;;;;;;;12.07;9.20;;;486.40;1356.80;;;;;;4957161;29;20037;-76
2021/10/20 11:37:18;;;;;;;14.40;10.35;;;486.40;1331.20;;;;;;4957909;29;20024;-85
2021/10/20 11:39:55;;;;;;;13.82;9.90;;;486.40;1408.00;;;;;;4940511;29;20086;-82
2021/10/20 11:42:23;;;;;;;18.30;9.98;;;486.40;1382.40;;;;;;4940501;29;20083;-77
2021/10/20 11:44:50;;;;;;;13.38;9.38;;;486.40;1382.40;;;;;;4957070;29;20043;-76
2021/10/20 11:47:20;;;;;;;12.88;9.25;;;486.40;1331.20;;;;;;4939665;29;20114;-76
2021/10/20 11:49:48;;;;;;;14.85;9.45;;;486.40;1331.20;;;;;;4939738;29;20042;-76
2021/10/20 11:52:17;;;;;;;13.85;10.43;;;486.40;1356.80;;;;;;4939659;29;20111;-76
2021/10/20 11:54:43;;;;;;;18.88;10.60;;;486.40;1356.80;;;;;;4956840;29;20027;-77
2021/10/20 11:57:10;;;;;;;14.48;10.20;;;486.40;1356.80;;;;;;4956720;29;20031;-77
2021/10/20 11:59:37;;;;;;;17.27;9.80;;;486.40;1408.00;;;;;;4956786;29;20082;-76
2021/10/20 12:02:04;;;;;;;14.38;10.60;;;486.50;1408.00;;;;;;4956348;29;20491;-83
2021/10/20 12:04:31;;;;;;;18.33;9.75;;;486.70;1382.40;;;;;;4939517;29;20035;-81
2021/10/20 12:07:02;;;;;;;31.38;10.68;;;486.80;1331.20;;;;;;4939340;29;20038;-82
2021/10/20 12:09:29;;;;;;;13.40;9.77;;;486.90;1331.20;;;;;;4939584;29;20027;-83
2021/10/20 12:11:57;;;;;;;15.20;8.85;;;487.00;1305.60;;;;;;4956697;29;20066;-91
2021/10/20 12:14:29;;;;;;;12.35;8.45;;;487.10;1305.60;;;;;;4938171;29;20062;-82
2021/10/20 12:16:56;;;;;;;10.73;8.57;;;487.10;1280.00;;;;;;4953678;29;20019;-85
2021/10/20 12:19:23;;;;;;;15.25;8.90;;;487.00;1280.00;;;;;;4938558;29;20039;-85
2021/10/20 12:21:49;;;;;;;24.15;12.82;;;487.30;1254.40;;;;;;4955738;29;20071;-84
2021/10/20 12:24:16;;;;;;;73.93;33.08;;;486.90;1280.00;;;;;;4938375;29;20548;-76
2021/10/20 12:26:43;;;;;;;20.50;11.43;;;486.80;1280.00;;;;;;4938210;29;20070;-77
2021/10/20 12:29:11;;;;;;;19.70;10.70;;;486.80;1356.80;;;;;;4938095;29;20459;-76
2021/10/20 12:31:37;;;;;;;21.70;13.60;;;486.90;1305.60;;;;;;4955357;29;20031;-76
2021/10/20 12:34:04;;;;;;;29.08;17.73;;;486.90;1331.20;;;;;;4936613;29;20027;-76
2021/10/20 12:36:32;;;;;;;28.45;15.80;;;487.00;1254.40;;;;;;4953548;29;20493;-76
2021/10/20 12:39:00;;;;;;;99.20;49.85;;;487.00;1280.00;;;;;;4953371;29;20031;-76
2021/10/20 12:41:32;;;;;;;67.47;35.83;;;487.00;1382.40;;;;;;4953403;29;20030;-76
2021/10/20 12:44:01;;;;;;;32.78;19.67;;;487.00;1305.60;;;;;;4953904;29;20078;-76
2021/10/20 12:46:29;;;;;;;45.65;26.15;;;487.10;1280.00;;;;;;4955413;29;20023;-76
2021/10/20 12:48:56;;;;;;;36.55;20.38;;;487.10;1305.60;;;;;;4938118;29;20493;-76
2021/10/20 12:51:25;;;;;;;23.48;12.25;;;512.00;1280.00;;;;;;4955245;29;20393;-76
2021/10/20 12:53:58;;;;;;;20.17;10.63;;;512.20;1228.80;;;;;;4955124;29;20114;-76
2021/10/20 12:56:25;;;;;;;18.67;9.00;;;512.20;1254.40;;;;;;4955285;29;20023;-77
2021/10/20 12:59:15;;;;;;;19.55;9.88;;;512.50;1203.20;;;;;;4955025;29;20098;-76
2021/10/20 13:01:42;;;;;;;17.55;10.50;;;512.70;1177.60;;;;;;4937936;29;20110;-79
2021/10/20 13:04:09;;;;;;;39.17;20.75;;;537.60;1203.20;;;;;;4955090;29;20050;-76
2021/10/20 13:06:36;;;;;;;32.67;18.92;;;538.40;1203.20;;;;;;4937874;29;20393;-76
2021/10/20 13:09:04;;;;;;;30.27;18.95;;;563.70;1203.20;;;;;;4937788;29;20042;-76
2021/10/20 13:11:30;;;;;;;26.17;14.82;;;564.10;1152.00;;;;;;4954788;29;20118;-76
2021/10/20 13:15:55;;;;;;;20.73;9.68;;;589.20;1075.20;;;;;;5111476;27;20390;-76
2021/10/20 13:18:23;;;;;;;20.20;9.40;;;614.60;998.40;;;;;;5110126;28;20047;-83
2021/10/20 13:20:49;;;;;;;11.98;8.52;;;614.90;972.80;;;;;;5111511;28;20071;-89
2021/10/20 13:23:15;;;;;;;11.30;8.55;;;615.10;947.20;;;;;;5111336;28;20533;-76
2021/10/20 13:25:41;;;;;;;14.75;9.48;;;615.20;972.80;;;;;;5111324;28;20024;-76
2021/10/20 13:28:08;;;;;;;16.13;10.15;;;615.20;972.80;;;;;;5109739;28;20027;-76
2021/10/20 13:30:38;;;;;;;22.20;11.63;;;615.30;998.40;;;;;;5111200;28;20051;-76
2021/10/20 13:33:05;;;;;;;22.65;11.60;;;615.20;1024.00;;;;;;5110125;28;20034;-76
2021/10/20 13:35:33;;;;;;;23.85;10.70;;;614.90;1024.00;;;;;;5109834;28;20396;-76
2021/10/20 13:38:03;;;;;;;18.63;10.38;;;614.90;998.40;;;;;;5110997;28;20020;-76
2021/10/20 13:40:29;;;;;;;15.52;9.10;;;614.80;998.40;;;;;;5111014;28;20027;-76
2021/10/20 13:42:55;;;;;;;14.10;9.27;;;615.10;972.80;;;;;;5110890;28;20023;-76
2021/10/20 13:45:21;;;;;;;13.27;8.73;;;615.20;921.60;;;;;;5110916;28;20389;-76
2021/10/20 13:47:47;;;;;;;33.08;9.63;;;615.20;921.60;;;;;;5110933;28;20020;-75
2021/10/20 13:50:13;;;;;;;15.73;8.23;;;615.20;947.20;;;;;;5111125;28;20066;-76
2021/10/20 13:52:38;;;;;;;15.93;8.98;;;614.90;998.40;;;;;;5111004;28;20020;-76
2021/10/20 13:55:05;;;;;;;17.20;10.18;;;614.80;998.40;;;;;;5109383;28;20043;-86
2021/10/20 13:57:31;;;;;;;18.02;9.50;;;614.90;998.40;;;;;;5109497;28;20058;-76
2021/10/20 13:59:57;;;;;;;23.52;11.60;;;614.70;998.40;;;;;;5109439;28;20051;-76
2021/10/20 14:02:23;;;;;;;859.08;77.00;;;614.40;1049.60;;;;;;5109401;28;20020;-76
2021/10/20 14:04:55;;;;;;;43.13;13.00;;;589.10;1075.20;;;;;;5109384;28;20024;-76
2021/10/20 14:07:21;;;;;;;27.67;11.90;;;563.90;1152.00;;;;;;5110594;28;20020;-76
2021/10/20 14:09:48;;;;;;;24.65;11.88;;;563.30;1177.60;;;;;;5109279;28;20369;-76
2021/10/20 14:12:14;;;;;;;39.30;12.57;;;538.30;1203.20;;;;;;5109106;28;20069;-76
2021/10/20 14:14:40;;;;;;;24.13;11.68;;;538.10;1203.20;;;;;;5110135;28;20113;-76
2021/10/20 14:17:08;;;;;;;25.73;12.05;;;537.90;1228.80;;;;;;5109124;28;20028;-76
2021/10/20 14:19:35;;;;;;;22.73;12.45;;;537.60;1331.20;;;;;;5108399;28;20380;-76
2021/10/20 14:22:02;;;;;;;29.70;13.07;;;512.90;1228.80;;;;;;5108979;28;20388;-75
2021/10/20 14:24:28;;;;;;;26.38;13.73;;;512.80;1254.40;;;;;;5110122;28;20020;-75
2021/10/20 14:26:55;;;;;;;27.52;15.15;;;512.70;1254.40;;;;;;5095029;28;20042;-75
2021/10/20 14:29:21;;;;;;;33.60;16.10;;;512.60;1254.40;;;;;;5094382;28;20065;-75
2021/10/20 14:31:52;;;;;;;26.20;14.57;;;512.40;1280.00;;;;;;5094221;28;20024;-75
2021/10/20 14:34:20;;;;;;;25.40;13.50;;;512.40;1280.00;;;;;;5094436;28;20132;-75
2021/10/20 14:36:46;;;;;;;31.38;15.45;;;512.20;1305.60;;;;;;5095945;28;20030;-76
2021/10/20 14:39:12;;;;;;;32.15;16.95;;;512.10;1305.60;;;;;;5095255;28;20114;-86
2021/10/20 14:41:39;;;;;;;34.00;16.50;;;512.00;1331.20;;;;;;5096043;28;20024;-85
2021/10/20 14:44:07;;;;;;;35.05;15.70;;;512.00;1331.20;;;;;;5095882;28;20082;-76
2021/10/20 14:46:35;;;;;;;33.75;16.23;;;512.00;1356.80;;;;;;5095681;28;20031;-75
2021/10/20 14:49:06;;;;;;;38.33;16.00;;;487.20;1356.80;;;;;;5094643;28;20020;-75
2021/10/20 14:51:32;;;;;;;28.92;15.05;;;487.10;1382.40;;;;;;5095594;28;20035;-75
2021/10/20 14:53:59;;;;;;;29.85;15.27;;;487.10;1382.40;;;;;;5093845;28;20040;-75
2021/10/20 14:56:25;;;;;;;29.88;14.77;;;487.00;1382.40;;;;;;5094295;28;20064;-76
2021/10/20 14:58:51;;;;;;;33.38;16.92;;;486.90;1408.00;;;;;;5094326;28;20020;-75
2021/10/20 15:01:18;;;;;;;39.90;18.27;;;486.80;1408.00;;;;;;5094225;28;20047;-75
2021/10/20 15:03:44;;;;;;;42.95;21.30;;;486.80;1433.60;;;;;;5095393;28;20073;-75
2021/10/20 15:06:12;;;;;;;37.63;21.45;;;486.70;1459.20;;;;;;5093582;28;20020;-76
2021/10/20 15:08:39;;;;;;;43.03;18.27;;;486.60;1484.80;;;;;;5092302;28;20403;-75
2021/10/20 15:11:06;;;;;;;36.70;18.33;;;486.50;1484.80;;;;;;5093908;28;20035;-77
2021/10/20 15:13:32;;;;;;;39.65;21.45;;;486.40;1484.80;;;;;;5095071;28;20464;-76
2021/10/20 15:15:58;;;;;;;32.45;19.50;;;486.40;1484.80;;;;;;5094649;28;20043;-75
2021/10/20 15:18:28;;;;;;;37.80;19.13;;;461.60;1510.40;;;;;;5093570;28;20024;-75
2021/10/20 15:23:20;;;;;;;38.30;22.40;;;461.50;1510.40;;;;;;5095127;28;20435;-82
2021/10/20 15:25:46;;;;;;;39.35;24.00;;;461.50;1536.00;;;;;;5093561;28;20059;-80
2021/10/20 15:28:12;;;;;;;32.95;22.13;;;461.40;1536.00;;;;;;5094921;28;20381;-76
2021/10/20 15:30:39;;;;;;;38.67;21.55;;;461.20;1561.60;;;;;;5093019;28;20024;-83
2021/10/20 15:33:07;;;;;;;41.05;23.95;;;461.20;1561.60;;;;;;5101744;28;20082;-76
2021/10/20 15:35:34;;;;;;;48.95;31.08;;;461.10;1561.60;;;;;;5094530;28;20024;-84
2021/10/20 15:38:01;;;;;;;66.35;38.13;;;461.00;1561.60;;;;;;5093642;28;20073;-85
2021/10/20 15:40:28;;;;;;;71.85;44.92;;;461.00;1587.20;;;;;;5090606;28;20070;-75
2021/10/20 15:42:54;;;;;;;144.88;47.08;;;460.80;1587.20;;;;;;5094655;28;20042;-86
2021/10/20 15:45:20;;;;;;;82.30;39.83;;;460.80;1612.80;;;;;;5094637;28;20055;-81
2021/10/20 15:47:45;;;;;;;61.25;33.72;;;460.80;1612.80;;;;;;5094605;28;20103;-76
2021/10/20 15:50:11;;;;;;;60.47;34.30;;;436.00;1587.20;;;;;;5093443;28;20132;-75
2021/10/20 15:52:38;;;;;;;80.53;48.28;;;436.00;1612.80;;;;;;5094418;28;20423;-76
2021/10/20 15:55:05;;;;;;;223.07;135.32;;;435.90;1612.80;;;;;;5093891;28;20075;-80
2021/10/20 15:57:31;;;;;;;361.52;222.65;;;435.90;1587.20;;;;;;5093208;28;20379;-83
2021/10/20 15:59:57;;;;;;;383.02;233.95;;;435.80;1612.80;;;;;;5092471;28;20521;-84
2021/10/20 16:02:23;;;;;;;604.63;397.67;;;;;;;;;;5091550;28;20028;-77
2021/10/20 16:04:49;;;;;;;617.70;418.63;;;;;;;;;;5092056;28;20035;-77
2021/10/20 16:07:16;;;;;;;578.05;382.17;;;;;;;;;;5092074;28;20030;-77
2021/10/20 16:09:42;;;;;;;575.88;382.13;;;;;;;;;;5093440;28;20136;-77
2021/10/20 16:12:08;;;;;;;516.55;328.05;;;;;;;;;;5093183;28;20039;-77
2021/10/20 16:14:35;;;;;;;591.25;366.52;;;;;;;;;;5092569;28;20040;-77
2021/10/20 16:17:01;;;;;;;508.40;302.20;;;;;;;;;;5093226;28;20030;-77
2021/10/20 16:19:27;;;;;;;436.42;255.20;;;;;;;;;;5093088;28;20073;-77
2021/10/20 16:21:53;;;;;;;467.95;270.60;;;435.30;1664.00;;;;;;5091196;28;20063;-78
2021/10/20 16:24:19;;;;;;;642.65;373.95;;;435.30;1664.00;;;;;;5091653;28;20051;-89
2021/10/20 16:26:45;;;;;;;568.38;321.85;;;410.50;1664.00;;;;;;5093989;28;20031;-85
2021/10/20 16:29:11;;;;;;;537.47;295.83;;;410.30;1689.60;;;;;;5093701;28;20054;-89
2021/10/20 16:31:37;;;;;;;456.25;240.60;;;410.30;1689.60;;;;;;5093523;28;20043;-82
2021/10/20 16:34:03;;;;;;;442.83;236.95;;;410.20;1689.60;;;;;;5094378;28;20032;-90
2021/10/20 16:36:31;;;;;;;383.55;202.65;;;410.10;1715.20;;;;;;5094208;28;20495;-91
2021/10/20 16:38:57;;;;;;;353.67;189.43;;;410.00;1715.20;;;;;;5094045;28;20020;-87
2021/10/20 16:41:23;;;;;;;333.17;173.18;;;410.00;1689.60;;;;;;5093207;28;20024;-82
2021/10/20 16:43:50;;;;;;;351.67;182.88;;;410.00;1715.20;;;;;;5094189;28;20038;-84
2021/10/20 16:46:16;;;;;;;422.23;194.80;;;409.90;1689.60;;;;;;5093479;28;20074;-84
2021/10/20 16:48:42;;;;;;;503.52;236.73;;;410.00;1689.60;;;;;;5093673;28;20131;-80
2021/10/20 16:51:09;;;;;;;434.48;215.65;;;409.80;1715.20;;;;;;5093061;28;20381;-83
2021/10/20 16:53:35;;;;;;;462.40;233.90;;;409.80;1740.80;;;;;;5092739;28;20059;-83
2021/10/20 16:56:01;;;;;;;471.80;244.05;;;409.70;1715.20;;;;;;5092862;28;20441;-83
2021/10/20 16:58:27;;;;;;;617.97;333.70;;;409.60;1740.80;;;;;;5092714;28;20028;-83
2021/10/20 17:00:54;;;;;;;559.85;311.23;;;409.60;1766.40;;;;;;5091967;28;20114;-82
2021/10/20 17:03:22;;;;;;;460.23;250.43;;;384.90;1715.20;;;;;;5092037;28;20089;-83
2021/10/20 17:05:48;;;;;;;296.65;165.38;;;384.80;1740.80;;;;;;5092680;28;20034;-83
2021/10/20 17:08:14;;;;;;;283.30;158.45;;;384.70;1740.80;;;;;;5092821;28;20426;-84
2021/10/20 17:10:40;;;;;;;245.15;144.18;;;384.70;1740.80;;;;;;5092432;28;20028;-83
2021/10/20 17:13:06;;;;;;;192.75;117.05;;;384.80;1740.80;;;;;;5091943;28;20088;-83
2021/10/20 17:15:32;;;;;;;192.25;118.80;;;384.60;1740.80;;;;;;5091905;28;20378;-83